Spivey, KS

5:28 AM CDT on September 30, 2014 (GMT -0500)
Weed Dept | Change Station
CLOSE
Current Station
Personal Weather Station
Location: Anthony, KS
Elevation: 1352 ft
Nearby Weather Stations
4.1 Earthquake: Perry, Oklahoma (7 hours ago)  

Elev 1352 ft 37.15 °N, 98.06 °W | Updated 10 minutes ago

Mostly Cloudy
Mostly Cloudy
64.9 °F
Feels Like 64.9 °F
N
7.3
Wind Variable Wind from SSE

Today
High -- | Low -- °F
--% Chance of Precip.
Yesterday
High -- | Low -- °F
Precip. -- in
7:27 AM 7:17 PM
Waxing Crescent, 35% visible
Pressure 29.89 in
Visibility 10.0 miles
Clouds Mostly Cloudy 11000 ft
Dew Point 58 °F
Humidity 79%
Rainfall 0.00 in
Snow Depth Not available.
UV 0 out of 12
Pollen 4.30 out of 12
Air Quality Not available.
Flu Activity Not available.
METAR KPTT 301015Z AUTO 16009KT 10SM BKN110 18/12 A2989 RMK AO2

More Conditions Fewer Conditions

Pressure 29.89 in
Visibility 10.0 miles
Clouds Mostly Cloudy 11000 ft
Dew Point 58 °F
Humidity 79%
Rainfall 0.00 in
Snow Depth Not available.
UV 0 out of 12
Pollen 4.30 out of 12
Air Quality Not available.
Flu Activity Not available.
METAR KPTT 301015Z AUTO 16009KT 10SM BKN110 18/12 A2989 RMK AO2

More Conditions Fewer Conditions

10-Day Weather Forecast

Almanac

Astronomy

Sep. 30, 2014 Rise Set
Actual Time 7:27 AM CDT 7:17 PM CDT
Civil Twilight 7:01 AM CDT 7:43 PM CDT
Nautical Twilight 6:31 AM CDT 8:13 PM CDT
Astronomical Twilight 6:00 AM CDT 8:44 PM CDT
Moon 1:31 PM CDT 11:54 PM CDT
Length of Visible Light 12h 42m
Length of Day
11h 49m
Tomorrow will be 2m 23s shorter.
Waxing Crescent, 35% of the Moon is Illuminated
Today
Waxing Crescent
Oct 1
First Quarter
Oct 8
Full
Oct 15
Last Quarter
Oct 23
New

Today's Extremes

State Highs State Lows

Community

WunderPhotos

Upload Photos

1,757,610 photos uploaded!

WunderBlogs® & News

Nearby

Snow Depth

Station Depth Elevation
No new snow has been reported.

Earthquake Activity

City Distance Mag. Time & Date
Perry, Oklahoma 91 miles 3.5 1:06 AM CDT
2014-09-30
Perry, Oklahoma 90 miles 3.3 12:58 AM CDT
2014-09-30
Perry, Oklahoma 90 miles 2.7 10:18 PM CDT
2014-09-29
Perry, Oklahoma 89 miles 4.1 10:01 PM CDT
2014-09-29
Minimum magnitude displayed is 2.5.

Coastal Water Temperatures

Place Temperature
No Stations Reporting

Nearby Weather Stations